Strona główna
METAR-TAF:

METAR-TAF

Lotnisko :

Pontoise, Francja

Szerokość geograficzna: 49-05-48N, Długość geograficzna: 002-02-27E, wysokość: 99 m

Aktualna obserwacja pogody

Raport powstał 31 minut temu, godzina 05:30 UTC
Wiatr 6 kt od wschód
Temperatura 15°C
Wilgotność 59%
Ciśnienie 1019 hPa
Widzialność 10 km lub więcej
Brak chmur poniżej 1500 m i brak chmur cumulonimbus

METAR: LFPT 010530Z AUTO 08006KT CAVOK 15/07 Q1019

czas: 08:01 (06:01 UTC)


TAF: brakujący

Obserwacja i prognoza pogody dla ponad 4000 lotnisk (raport METAR i TAF).

Dostępne stacje oznaczono żółtymi i czerwonymi punktami na mapie.

Najedź kursorem aby zobaczyć nazwę stacji.

Kliknij aby zobaczyć obserwacje i prognozy pogody.

Aby zmienić mapę: kliknij na zielony przycisk z czarnym krzyżykiem, aby powiększyć; na zielony przycisk z myślnikiem, aby pomniejszyć; na zielone strzałki, aby przejść do map sąsiednich.


METAR-TAF: